Time;durP1;ratioP1;P1;durP2;ratioP2;P2;SDS_P1;SDS_P2;PMS_P1;PMS_P2;Temp;Humidity;BMP_temperature;BMP_pressure;BME280_temperature;BME280_humidity;BME280_pressure;Samples;Min_cycle;Max_cycle;Signal;HPM_P1;HPM_P2
2022/08/22 00:02:33;;;;;;;8.63;2.88;;;16.50;99.90;;;;;;5090712;28;20146;-90
2022/08/22 00:05:22;;;;;;;7.85;3.10;;;16.80;99.90;;;;;;5089522;28;20394;-91
2022/08/22 00:08:26;;;;;;;6.65;2.75;;;16.60;99.90;;;;;;5090429;28;20073;-90
2022/08/22 00:11:16;;;;;;;8.38;2.72;;;16.60;99.90;;;;;;5035462;28;20058;-89
2022/08/22 00:14:18;;;;;;;7.53;2.25;;;16.60;99.90;;;;;;5089461;28;20414;-90
2022/08/22 00:17:03;;;;;;;10.63;2.15;;;16.60;99.90;;;;;;5089545;28;20046;-91
2022/08/22 00:20:01;;;;;;;5.53;2.25;;;16.60;99.90;;;;;;5090371;28;20126;-91
2022/08/22 00:22:46;;;;;;;7.05;2.35;;;16.60;99.90;;;;;;5089153;28;20043;-90
2022/08/22 00:25:35;;;;;;;6.05;2.40;;;16.50;99.90;;;;;;5089787;28;20036;-90
2022/08/22 00:28:19;;;;;;;7.65;2.60;;;16.50;99.90;;;;;;5089972;28;20045;-90
2022/08/22 00:31:20;;;;;;;4.68;2.25;;;16.50;99.90;;;;;;5088586;28;20482;-89
2022/08/22 00:34:09;;;;;;;6.95;2.42;;;16.50;99.90;;;;;;5076184;28;20051;-89
2022/08/22 00:36:52;;;;;;;11.40;3.15;;;16.50;99.90;;;;;;5089676;28;20131;-91
2022/08/22 00:39:39;;;;;;;5.75;1.80;;;16.50;99.90;;;;;;5088339;28;20119;-90
2022/08/22 00:42:32;;;;;;;10.80;2.45;;;16.50;99.90;;;;;;5089630;28;20040;-90
2022/08/22 00:45:16;;;;;;;8.43;2.33;;;16.50;99.90;;;;;;5089366;28;20108;-89
2022/08/22 00:48:00;;;;;;;5.80;2.00;;;16.50;99.90;;;;;;5088915;28;20156;-90
2022/08/22 00:50:39;;;;;;;6.18;1.92;;;16.50;99.90;;;;;;5090178;28;20380;-90
2022/08/22 00:53:23;;;;;;;8.82;2.42;;;16.50;99.90;;;;;;5089215;28;20051;-90
2022/08/22 00:56:23;;;;;;;9.68;2.85;;;16.50;99.90;;;;;;5088839;28;20126;-90
2022/08/22 00:58:51;;;;;;;7.57;2.45;;;16.50;99.90;;;;;;5090006;28;20075;-90
2022/08/22 01:01:25;;;;;;;8.98;2.75;;;16.50;99.90;;;;;;5089306;28;20036;-90
2022/08/22 01:04:33;;;;;;;9.13;2.65;;;17.00;99.90;;;;;;5089866;28;20267;-90
2022/08/22 01:06:58;;;;;;;4.20;2.10;;;16.50;99.90;;;;;;5090080;28;20145;-90
2022/08/22 01:09:45;;;;;;;9.30;2.80;;;16.50;99.90;;;;;;5088532;28;20106;-90
2022/08/22 01:12:30;;;;;;;8.93;2.35;;;16.50;99.90;;;;;;5089830;28;20062;-90
2022/08/22 01:15:04;;;;;;;7.28;2.20;;;16.50;99.90;;;;;;5088797;28;20058;-89
2022/08/22 01:17:43;;;;;;;6.35;2.42;;;16.50;99.90;;;;;;5088530;28;20039;-90
2022/08/22 01:20:43;;;;;;;11.88;3.38;;;16.50;99.90;;;;;;5089114;28;20494;-91
2022/08/22 01:23:24;;;;;;;12.13;2.78;;;16.50;99.90;;;;;;5088680;28;20043;-89
2022/08/22 01:25:56;;;;;;;6.72;2.72;;;16.50;99.90;;;;;;5088023;28;20092;-90
2022/08/22 01:28:26;;;;;;;9.52;3.60;;;16.50;99.90;;;;;;5089919;28;20044;-90
2022/08/22 01:31:16;;;;;;;12.45;2.70;;;16.50;99.90;;;;;;5088694;28;20116;-89
2022/08/22 01:34:27;;;;;;;5.90;2.58;;;16.40;99.90;;;;;;5089067;28;20096;-90
2022/08/22 01:37:30;;;;;;;9.18;2.83;;;16.40;99.90;;;;;;5055966;28;20046;-91
2022/08/22 01:40:14;;;;;;;;;;;16.40;99.90;;;;;;5088754;28;20051;-89
2022/08/22 01:43:05;;;;;;;5.15;2.45;;;16.40;99.90;;;;;;5088420;28;19926;-89
2022/08/22 01:45:41;;;;;;;17.58;3.65;;;16.40;99.90;;;;;;5089328;28;20486;-90
2022/08/22 01:48:37;;;;;;;7.15;3.03;;;16.40;99.90;;;;;;5092446;28;20047;-89
2022/08/22 01:51:24;;;;;;;9.32;2.90;;;16.30;99.90;;;;;;5075061;28;20048;-90
2022/08/22 01:54:02;;;;;;;6.43;2.97;;;16.30;99.90;;;;;;5092941;28;20050;-89
2022/08/22 01:56:37;;;;;;;9.48;3.28;;;16.30;99.90;;;;;;5092255;28;20044;-90
2022/08/22 01:59:16;;;;;;;10.48;3.53;;;15.80;99.90;;;;;;5092637;28;20092;-90
2022/08/22 02:02:00;;;;;;;10.35;3.35;;;16.30;99.90;;;;;;5092751;28;20402;-90
2022/08/22 02:05:01;;;;;;;6.15;2.35;;;16.20;99.90;;;;;;5091603;28;20040;-89
2022/08/22 02:07:33;;;;;;;5.82;2.55;;;16.20;99.90;;;;;;5092681;28;20044;-90
2022/08/22 02:10:26;;;;;;;8.27;2.85;;;16.20;99.90;;;;;;5092169;28;20046;-91
2022/08/22 02:13:19;;;;;;;9.75;2.72;;;16.20;99.90;;;;;;5092170;28;20040;-90
2022/08/22 02:15:52;;;;;;;8.60;2.70;;;16.20;99.90;;;;;;5092573;28;20054;-91
2022/08/22 02:18:23;;;;;;;;;;;16.10;99.90;;;;;;5091847;28;20550;-90
2022/08/22 02:20:57;;;;;;;6.85;2.45;;;16.50;99.90;;;;;;5091875;28;19919;-90
2022/08/22 02:23:48;;;;;;;4.15;2.58;;;16.10;99.90;;;;;;5092464;28;20044;-91
2022/08/22 02:26:22;;;;;;;7.05;3.15;;;16.00;99.90;;;;;;5090759;28;20048;-91
2022/08/22 02:28:57;;;;;;;6.30;2.70;;;16.00;99.90;;;;;;5092810;28;20051;-90
2022/08/22 02:31:41;;;;;;;7.93;2.58;;;16.00;99.90;;;;;;5091170;28;20047;-89
2022/08/22 02:34:25;;;;;;;7.68;3.03;;;16.00;99.90;;;;;;5091700;28;20510;-91
2022/08/22 02:37:14;;;;;;;8.15;3.08;;;15.90;99.90;;;;;;5092553;28;20461;-90
2022/08/22 02:40:09;;;;;;;9.38;2.42;;;15.90;99.90;;;;;;5091806;28;20055;-91
2022/08/22 02:43:11;;;;;;;4.90;2.33;;;15.90;99.90;;;;;;5083059;28;20120;-90
2022/08/22 02:45:54;;;;;;;6.78;2.33;;;15.80;99.90;;;;;;5088110;28;20195;-90
2022/08/22 02:48:51;;;;;;;5.95;2.65;;;15.80;99.90;;;;;;5091122;28;20272;-91
2022/08/22 02:51:24;;;;;;;10.10;2.55;;;15.80;99.90;;;;;;5091139;28;20044;-90
2022/08/22 02:54:25;;;;;;;6.78;2.90;;;15.70;99.90;;;;;;5092479;28;20134;-91
2022/08/22 02:57:03;;;;;;;5.80;2.60;;;15.70;99.90;;;;;;5059389;28;20407;-91
2022/08/22 02:59:36;;;;;;;6.45;2.78;;;15.60;99.90;;;;;;5090406;28;20048;-91
2022/08/22 03:02:26;;;;;;;6.30;2.47;;;15.60;99.90;;;;;;5091729;28;20505;-91
2022/08/22 03:04:56;;;;;;;6.25;2.65;;;15.60;99.90;;;;;;5090888;28;20054;-90
2022/08/22 03:07:44;;;;;;;6.60;2.55;;;15.60;99.90;;;;;;5092051;28;20450;-91
2022/08/22 03:10:19;;;;;;;10.73;2.97;;;15.50;99.90;;;;;;5091347;28;20398;-90
2022/08/22 03:13:05;;;;;;;4.68;2.90;;;15.70;99.90;;;;;;5091056;28;20056;-91
2022/08/22 03:15:43;;;;;;;4.57;2.38;;;15.50;99.90;;;;;;5092030;28;20068;-89
2022/08/22 03:18:11;;;;;;;10.75;2.83;;;15.40;99.90;;;;;;5090785;28;20046;-91
2022/08/22 03:20:51;;;;;;;6.40;2.95;;;15.50;99.90;;;;;;5091433;28;20067;-91
2022/08/22 03:24:01;;;;;;;8.57;2.95;;;15.30;99.90;;;;;;5091140;28;20035;-90
2022/08/22 03:26:32;;;;;;;10.50;2.90;;;15.30;99.90;;;;;;4992747;28;20137;-90
2022/08/22 03:29:10;;;;;;;15.27;3.42;;;15.20;99.90;;;;;;5074149;28;20059;-90
2022/08/22 03:31:36;;;;;;;7.55;3.30;;;15.20;99.90;;;;;;5090350;28;20131;-90
2022/08/22 03:34:13;;;;;;;5.20;2.83;;;15.20;99.90;;;;;;5073641;28;20079;-90
2022/08/22 03:36:46;;;;;;;6.78;3.05;;;15.10;99.90;;;;;;5090630;28;20052;-90
2022/08/22 03:39:17;;;;;;;6.55;2.70;;;15.20;99.90;;;;;;5089884;28;20142;-90
2022/08/22 03:42:01;;;;;;;10.55;3.40;;;15.00;99.90;;;;;;5090671;28;20042;-89
2022/08/22 03:45:04;;;;;;;5.53;3.40;;;15.00;99.90;;;;;;5090702;28;20084;-90
2022/08/22 03:48:02;;;;;;;7.05;3.25;;;15.00;99.90;;;;;;5089361;28;20047;-89
2022/08/22 03:51:10;;;;;;;10.85;3.47;;;15.00;99.90;;;;;;5090448;28;20100;-90
2022/08/22 03:53:57;;;;;;;7.68;3.03;;;14.90;99.90;;;;;;5090586;28;20047;-91
2022/08/22 03:56:48;;;;;;;6.95;3.28;;;14.90;99.90;;;;;;5089572;28;20048;-90
2022/08/22 03:59:22;;;;;;;8.25;2.50;;;14.80;99.90;;;;;;5089921;28;20039;-90
2022/08/22 04:02:26;;;;;;;6.35;2.95;;;14.80;99.90;;;;;;5090458;28;20054;-90
2022/08/22 04:05:16;;;;;;;5.22;2.53;;;14.80;99.90;;;;;;5088819;28;20088;-90
2022/08/22 04:08:19;;;;;;;8.23;3.20;;;14.80;99.90;;;;;;5090234;28;20047;-90
2022/08/22 04:11:16;;;;;;;7.78;2.40;;;14.70;99.90;;;;;;5089647;28;20127;-89
2022/08/22 04:14:09;;;;;;;5.80;2.55;;;14.70;99.90;;;;;;5089318;28;20070;-89
2022/08/22 04:17:01;;;;;;;6.45;2.55;;;14.60;99.90;;;;;;5089404;28;20510;-90
2022/08/22 04:20:00;;;;;;;3.92;2.60;;;14.60;99.90;;;;;;5072575;28;20134;-89
2022/08/22 04:22:54;;;;;;;7.15;3.08;;;14.60;99.90;;;;;;5089372;28;20051;-90
2022/08/22 04:25:51;;;;;;;5.57;2.53;;;14.50;99.90;;;;;;5089109;28;20050;-89
2022/08/22 04:28:24;;;;;;;7.78;2.38;;;14.50;99.90;;;;;;5088394;28;20093;-90
2022/08/22 04:30:52;;;;;;;4.60;2.45;;;14.50;99.90;;;;;;5089091;28;20058;-90
2022/08/22 04:33:25;;;;;;;5.35;2.40;;;14.50;99.90;;;;;;5089922;28;20047;-90
2022/08/22 04:36:09;;;;;;;7.20;3.20;;;14.50;99.90;;;;;;5089437;28;20053;-90
2022/08/22 04:38:55;;;;;;;7.22;3.05;;;14.50;99.90;;;;;;5088638;28;20146;-89
2022/08/22 04:41:40;;;;;;;8.27;2.50;;;14.50;99.90;;;;;;5090080;28;20047;-89
2022/08/22 04:44:23;;;;;;;5.43;2.95;;;14.80;99.90;;;;;;5089087;28;20040;-90
2022/08/22 04:47:19;;;;;;;7.20;2.95;;;14.50;99.90;;;;;;5089498;28;20047;-91
2022/08/22 04:49:55;;;;;;;3.20;2.20;;;14.40;99.90;;;;;;5089709;28;20453;-91
2022/08/22 04:52:47;;;;;;;13.57;2.85;;;14.40;99.90;;;;;;5088842;28;20054;-91
2022/08/22 04:55:50;;;;;;;11.38;2.70;;;14.50;99.90;;;;;;5089689;28;20059;-90
2022/08/22 04:58:34;;;;;;;8.03;3.07;;;14.50;99.90;;;;;;5089480;28;20047;-90
2022/08/22 05:01:09;;;;;;;7.55;3.10;;;14.50;99.90;;;;;;5088748;28;20039;-91
2022/08/22 05:03:39;;;;;;;11.40;2.88;;;14.50;99.90;;;;;;5089338;28;20052;-90
2022/08/22 05:06:07;;;;;;;6.65;2.53;;;14.60;99.90;;;;;;5089071;28;20040;-90
2022/08/22 05:08:38;;;;;;;8.18;3.67;;;14.60;99.90;;;;;;5071654;28;20046;-90
2022/08/22 05:11:08;;;;;;;9.00;3.65;;;14.60;99.90;;;;;;5089483;28;20040;-90
2022/08/22 05:13:56;;;;;;;9.43;3.28;;;14.70;99.90;;;;;;5088166;28;20039;-90
2022/08/22 05:16:44;;;;;;;6.55;3.20;;;14.70;99.90;;;;;;5089231;28;20043;-89
2022/08/22 05:19:16;;;;;;;9.52;3.72;;;14.70;99.90;;;;;;5089399;28;20100;-90
2022/08/22 05:21:45;;;;;;;9.68;3.03;;;14.70;99.90;;;;;;5089707;28;20036;-90
2022/08/22 05:24:19;;;;;;;6.82;3.00;;;14.80;99.90;;;;;;5110464;28;20043;-89
2022/08/22 05:26:50;;;;;;;6.03;2.85;;;14.80;99.90;;;;;;5092988;28;20055;-90
2022/08/22 05:29:21;;;;;;;6.20;2.85;;;14.80;99.90;;;;;;5093543;28;20044;-90
2022/08/22 05:31:55;;;;;;;6.38;3.30;;;14.80;99.90;;;;;;5093659;28;20173;-90
2022/08/22 05:34:29;;;;;;;10.77;3.63;;;14.80;99.90;;;;;;5092662;28;20068;-89
2022/08/22 05:37:05;;;;;;;6.22;3.30;;;14.90;99.90;;;;;;5093920;28;20091;-90
2022/08/22 05:39:32;;;;;;;8.88;3.65;;;14.90;99.90;;;;;;5093255;28;20054;-89
2022/08/22 05:42:01;;;;;;;7.65;4.15;;;15.40;99.90;;;;;;5076217;28;20052;-91
2022/08/22 05:44:36;;;;;;;5.60;3.55;;;15.00;99.90;;;;;;5092715;28;20043;-90
2022/08/22 05:47:18;;;;;;;5.95;3.67;;;15.00;99.90;;;;;;5091985;28;20039;-90
2022/08/22 05:50:24;;;;;;;8.45;3.05;;;15.10;99.90;;;;;;5093609;28;20047;-90
2022/08/22 05:52:57;;;;;;;7.82;3.53;;;15.10;99.90;;;;;;5079051;28;20055;-89
2022/08/22 05:55:46;;;;;;;12.82;4.78;;;15.20;99.90;;;;;;5092164;28;20092;-90
2022/08/22 05:58:44;;;;;;;12.38;5.47;;;15.30;99.90;;;;;;5092978;28;20031;-89
2022/08/22 06:01:22;;;;;;;19.33;5.82;;;15.30;99.90;;;;;;5091425;28;20043;-89
2022/08/22 06:04:14;;;;;;;8.30;4.53;;;15.40;99.90;;;;;;5092240;28;20051;-91
2022/08/22 06:07:00;;;;;;;15.55;4.93;;;15.50;99.90;;;;;;5093140;28;20130;-90
2022/08/22 06:10:07;;;;;;;13.15;5.47;;;15.60;99.90;;;;;;5091280;28;20058;-90
2022/08/22 06:12:43;;;;;;;11.20;4.47;;;15.70;99.90;;;;;;5058512;28;20073;-90
2022/08/22 06:15:41;;;;;;;7.03;4.55;;;15.90;99.90;;;;;;5093121;28;20394;-89
2022/08/22 06:18:11;;;;;;;12.75;5.22;;;15.90;99.90;;;;;;5044961;28;20134;-90
2022/08/22 06:20:48;;;;;;;9.55;4.45;;;16.00;99.90;;;;;;5092016;28;20040;-90
2022/08/22 06:23:26;;;;;;;12.13;4.32;;;16.10;99.90;;;;;;5092265;28;20407;-89
2022/08/22 06:25:56;;;;;;;15.77;5.13;;;16.30;99.90;;;;;;5107486;28;20048;-90
2022/08/22 06:28:25;;;;;;;9.43;4.55;;;16.40;99.90;;;;;;5092337;28;20541;-90
2022/08/22 06:30:56;;;;;;;10.45;4.45;;;16.80;99.90;;;;;;5075271;28;20494;-89
2022/08/22 06:33:27;;;;;;;9.73;4.78;;;16.70;99.90;;;;;;5074780;28;20111;-90
2022/08/22 06:36:32;;;;;;;9.05;3.92;;;16.80;99.90;;;;;;5092189;28;20079;-90
2022/08/22 06:39:06;;;;;;;9.35;4.50;;;17.00;99.90;;;;;;5041759;28;20058;-90
2022/08/22 06:41:55;;;;;;;13.45;4.78;;;17.10;99.90;;;;;;5091777;28;20062;-90
2022/08/22 06:44:28;;;;;;;12.00;4.10;;;17.30;99.90;;;;;;5074843;28;20101;-92
2022/08/22 06:46:58;;;;;;;10.85;3.90;;;17.40;99.90;;;;;;5091558;28;20040;-90
2022/08/22 06:49:26;;;;;;;9.82;3.60;;;17.50;99.90;;;;;;5092329;28;20040;-90
2022/08/22 06:51:58;;;;;;;9.88;3.88;;;17.60;99.90;;;;;;5091322;28;20035;-90
2022/08/22 06:54:29;;;;;;;13.68;3.95;;;17.70;99.90;;;;;;5092042;28;20040;-91
2022/08/22 06:56:56;;;;;;;11.68;4.22;;;17.90;99.90;;;;;;5091177;28;20050;-91
2022/08/22 06:59:28;;;;;;;10.18;4.28;;;18.00;99.90;;;;;;5058290;28;20578;-90
2022/08/22 07:02:07;;;;;;;9.30;3.20;;;18.10;99.90;;;;;;5091946;28;20130;-90
2022/08/22 07:04:33;;;;;;;10.20;3.65;;;18.30;99.90;;;;;;5090326;28;20163;-91
2022/08/22 07:07:00;;;;;;;10.13;3.33;;;18.50;99.90;;;;;;5074837;28;20058;-91
2022/08/22 07:09:39;;;;;;;7.70;2.97;;;18.50;99.90;;;;;;5090802;28;20070;-92
2022/08/22 07:12:18;;;;;;;11.73;2.83;;;18.60;99.90;;;;;;5091281;28;20058;-91
2022/08/22 07:14:48;;;;;;;11.43;2.95;;;18.70;99.90;;;;;;5092253;28;20184;-91
2022/08/22 07:17:20;;;;;;;11.30;2.70;;;18.80;99.90;;;;;;5090163;28;20078;-90
2022/08/22 07:20:22;;;;;;;17.45;3.72;;;18.80;99.90;;;;;;5091428;28;20066;-91
2022/08/22 07:23:04;;;;;;;7.18;2.85;;;18.90;99.90;;;;;;5090825;28;20044;-90
2022/08/22 07:25:34;;;;;;;15.85;3.35;;;19.00;99.90;;;;;;5090577;28;20048;-91
2022/08/22 07:28:12;;;;;;;11.27;3.78;;;19.10;99.90;;;;;;5075277;28;20102;-90
2022/08/22 07:30:41;;;;;;;10.50;3.20;;;19.10;99.90;;;;;;5090808;28;20078;-92
2022/08/22 07:33:22;;;;;;;5.80;2.42;;;19.20;99.90;;;;;;5091202;28;20050;-91
2022/08/22 07:35:57;;;;;;;14.60;2.95;;;19.20;99.90;;;;;;5090547;28;20078;-92
2022/08/22 07:38:31;;;;;;;12.52;3.08;;;19.30;99.90;;;;;;5090293;28;20047;-91
2022/08/22 07:41:15;;;;;;;7.93;2.80;;;19.30;99.90;;;;;;5091255;28;20069;-91
2022/08/22 07:43:47;;;;;;;9.88;2.58;;;19.40;99.90;;;;;;5089836;28;20093;-91
2022/08/22 07:46:27;;;;;;;10.23;2.73;;;19.40;99.90;;;;;;5090332;28;20036;-91
2022/08/22 07:49:07;;;;;;;9.38;2.80;;;19.50;99.90;;;;;;5091245;28;20072;-90
2022/08/22 07:51:50;;;;;;;12.23;3.30;;;19.50;99.90;;;;;;5089946;28;20426;-91
2022/08/22 07:54:31;;;;;;;10.25;3.17;;;19.60;99.90;;;;;;5089895;28;20083;-91
2022/08/22 07:57:31;;;;;;;8.85;2.90;;;19.60;99.90;;;;;;5089727;28;20101;-91
2022/08/22 07:59:59;;;;;;;10.85;3.85;;;19.70;99.90;;;;;;5081748;28;20055;-92
2022/08/22 08:02:26;;;;;;;11.02;3.70;;;19.80;99.90;;;;;;5091129;28;20130;-90
2022/08/22 08:04:56;;;;;;;11.38;3.30;;;19.90;99.90;;;;;;5089599;28;20043;-90
2022/08/22 08:07:25;;;;;;;8.85;3.03;;;19.90;99.90;;;;;;5090310;28;20117;-91
2022/08/22 08:09:59;;;;;;;9.40;2.95;;;20.10;99.90;;;;;;5073355;28;20047;-90
2022/08/22 08:12:34;;;;;;;7.55;2.88;;;20.10;99.90;;;;;;5089551;28;20126;-91
2022/08/22 08:15:02;;;;;;;9.23;2.55;;;20.20;99.90;;;;;;5090644;28;20039;-92
2022/08/22 08:17:33;;;;;;;8.20;2.13;;;20.20;99.90;;;;;;5089291;28;20050;-91
2022/08/22 08:20:04;;;;;;;8.32;2.63;;;20.30;99.90;;;;;;5089848;28;20134;-91
2022/08/22 08:22:31;;;;;;;13.70;3.03;;;20.40;99.90;;;;;;5090421;28;20099;-91
2022/08/22 08:24:59;;;;;;;12.07;2.53;;;20.50;99.90;;;;;;5089778;28;20487;-91
2022/08/22 08:30:26;;;;;;;7.28;2.55;;;20.60;99.90;;;;;;5106205;28;20051;-92
2022/08/22 08:32:55;;;;;;;13.10;3.00;;;20.70;99.90;;;;;;5090175;28;20040;-91
2022/08/22 08:35:24;;;;;;;10.82;2.30;;;20.70;99.90;;;;;;5089990;28;20752;-91
2022/08/22 08:37:53;;;;;;;7.88;1.95;;;20.70;99.90;;;;;;5089307;28;20508;-91
2022/08/22 08:40:31;;;;;;;8.80;2.10;;;20.70;99.90;;;;;;5089994;28;20063;-91
2022/08/22 08:45:59;;;;;;;7.25;1.92;;;20.60;99.90;;;;;;5106951;28;20300;-91
2022/08/22 08:48:52;;;;;;;14.73;2.03;;;20.60;99.90;;;;;;5089706;28;20070;-91
2022/08/22 08:51:35;;;;;;;9.07;1.85;;;20.60;99.90;;;;;;5089149;28;20077;-91
2022/08/22 08:54:03;;;;;;;;;;;20.70;99.90;;;;;;5090304;28;20040;-91
2022/08/22 08:57:13;;;;;;;11.60;2.83;;;20.70;99.90;;;;;;5088976;28;19927;-90
2022/08/22 09:00:01;;;;;;;12.15;2.95;;;20.80;99.90;;;;;;5088510;28;20139;-91
2022/08/22 09:02:52;;;;;;;8.35;2.38;;;20.80;99.90;;;;;;5090728;28;20036;-92
2022/08/22 09:06:15;;;;;;;10.55;1.83;;;21.10;99.90;;;;;;5089545;28;20509;-91
2022/08/22 09:08:44;;;;;;;4.80;1.73;;;20.90;99.90;;;;;;4992453;28;20050;-91
2022/08/22 09:11:47;;;;;;;7.40;1.85;;;20.80;99.90;;;;;;4992292;28;20460;-90
2022/08/22 09:14:22;;;;;;;;;;;20.90;99.90;;;;;;5064327;28;20055;-92
2022/08/22 09:16:59;;;;;;;5.97;1.42;;;21.10;99.90;;;;;;5089643;28;19970;-91
2022/08/22 09:19:34;;;;;;;6.05;1.60;;;21.30;99.90;;;;;;5093212;28;20196;-93
2022/08/22 09:22:43;;;;;;;8.38;2.47;;;21.60;99.90;;;;;;5091440;28;20468;-91
2022/08/22 09:25:15;;;;;;;10.43;2.35;;;22.10;99.90;;;;;;5088928;28;20051;-90
2022/08/22 09:27:58;;;;;;;6.18;1.83;;;22.40;99.90;;;;;;5090472;28;20502;-93
2022/08/22 09:30:54;;;;;;;11.98;2.40;;;22.50;99.90;;;;;;5088360;28;20075;-91
2022/08/22 09:33:23;;;;;;;7.97;2.38;;;22.60;99.90;;;;;;5050953;28;20048;-91
2022/08/22 09:35:57;;;;;;;9.00;2.22;;;22.60;99.90;;;;;;5088788;28;20039;-90
2022/08/22 09:38:52;;;;;;;11.15;2.70;;;22.60;99.90;;;;;;5088014;28;20044;-91
2022/08/22 09:41:43;;;;;;;7.43;1.80;;;22.60;99.90;;;;;;5089094;28;20130;-91
2022/08/22 09:44:49;;;;;;;5.22;1.52;;;22.70;99.90;;;;;;5088716;28;20040;-91
2022/08/22 09:47:38;;;;;;;7.63;1.58;;;22.90;99.90;;;;;;5087928;28;20172;-91
2022/08/22 09:50:21;;;;;;;8.90;2.25;;;22.90;99.90;;;;;;5088982;28;20055;-91
2022/08/22 09:52:58;;;;;;;6.75;1.58;;;23.00;99.90;;;;;;5088743;28;20043;-91
2022/08/22 09:55:56;;;;;;;7.10;2.22;;;23.00;99.90;;;;;;5088101;28;20043;-91
2022/08/22 09:58:56;;;;;;;7.43;1.80;;;23.00;99.90;;;;;;5089247;28;20402;-91
2022/08/22 10:01:33;;;;;;;6.65;1.75;;;23.10;99.90;;;;;;5087952;28;20047;-91
2022/08/22 10:04:23;;;;;;;6.65;1.85;;;23.10;99.90;;;;;;5088343;28;20050;-91
2022/08/22 10:07:03;;;;;;;6.82;2.00;;;23.20;99.90;;;;;;5089282;28;20052;-92
2022/08/22 10:10:02;;;;;;;5.57;1.92;;;23.30;99.90;;;;;;5092709;28;20399;-92
2022/08/22 10:12:57;;;;;;;8.38;2.15;;;23.40;99.90;;;;;;5091964;28;20471;-91
2022/08/22 10:15:56;;;;;;;6.95;1.58;;;23.50;99.90;;;;;;5092536;28;20043;-91
2022/08/22 10:18:46;;;;;;;4.65;1.63;;;23.70;99.90;;;;;;5092523;28;20047;-90
2022/08/22 10:21:14;;;;;;;6.78;2.35;;;23.80;99.90;;;;;;5091332;28;20130;-91
2022/08/22 10:24:09;;;;;;;7.95;2.20;;;23.70;99.90;;;;;;5092951;28;20126;-91
2022/08/22 10:26:53;;;;;;;5.95;1.80;;;23.80;99.90;;;;;;5083030;28;20048;-92
2022/08/22 10:29:40;;;;;;;6.05;1.63;;;24.00;99.90;;;;;;5091170;28;20054;-91
2022/08/22 10:32:47;;;;;;;5.53;1.40;;;24.10;99.90;;;;;;5092215;28;20039;-91
2022/08/22 10:35:19;;;;;;;7.68;1.58;;;24.20;99.90;;;;;;5091798;28;20036;-92
2022/08/22 10:37:59;;;;;;;8.02;1.90;;;24.30;99.90;;;;;;5091357;28;20401;-91
2022/08/22 10:40:40;;;;;;;9.25;2.47;;;24.40;99.90;;;;;;5091783;28;20516;-91
2022/08/22 10:43:23;;;;;;;6.95;1.90;;;24.50;99.90;;;;;;5091585;28;20047;-91
2022/08/22 10:46:00;;;;;;;6.70;1.95;;;24.60;99.90;;;;;;5091843;28;20101;-91
2022/08/22 10:48:56;;;;;;;7.88;1.98;;;24.60;99.90;;;;;;5091818;28;20051;-91
2022/08/22 10:51:44;;;;;;;7.60;1.88;;;24.70;99.90;;;;;;5090575;28;20151;-90
2022/08/22 10:54:21;;;;;;;7.35;2.10;;;24.80;99.90;;;;;;5091601;28;20036;-92
2022/08/22 10:57:07;;;;;;;8.07;2.10;;;24.80;99.90;;;;;;5091916;28;20075;-92
2022/08/22 10:59:43;;;;;;;8.15;1.80;;;24.80;99.90;;;;;;5091094;28;20454;-91
2022/08/22 11:02:32;;;;;;;10.20;2.17;;;24.90;99.90;;;;;;5091934;28;20054;-90
2022/08/22 11:05:13;;;;;;;6.55;1.50;;;25.00;99.90;;;;;;5091219;28;20054;-91
2022/08/22 11:08:05;;;;;;;5.22;1.58;;;25.10;99.90;;;;;;5091703;28;20382;-91
2022/08/22 11:10:43;;;;;;;7.25;1.98;;;25.10;99.90;;;;;;5091775;28;20130;-91
2022/08/22 11:13:34;;;;;;;5.72;1.67;;;25.10;99.90;;;;;;5091176;28;20071;-90
2022/08/22 11:16:12;;;;;;;7.57;2.33;;;25.10;99.90;;;;;;5091279;28;20344;-91
2022/08/22 11:18:59;;;;;;;10.95;2.10;;;25.30;99.90;;;;;;5090149;28;20230;-90
2022/08/22 11:21:47;;;;;;;12.77;1.80;;;25.60;99.90;;;;;;5089496;28;20470;-92
2022/08/22 11:24:40;;;;;;;4.95;1.45;;;25.60;99.90;;;;;;5090510;28;20439;-91
2022/08/22 11:27:16;;;;;;;5.28;1.60;;;25.80;99.90;;;;;;5090728;28;20130;-90
2022/08/22 11:30:09;;;;;;;4.80;1.48;;;25.80;99.90;;;;;;5089421;28;20043;-91
2022/08/22 11:32:39;;;;;;;6.82;1.90;;;25.60;99.90;;;;;;5090850;28;20096;-90
2022/08/22 11:35:21;;;;;;;5.10;1.40;;;25.30;99.90;;;;;;5090279;28;20044;-90
2022/08/22 11:38:09;;;;;;;4.20;1.45;;;25.30;99.90;;;;;;5090207;28;20356;-92
2022/08/22 11:40:35;;;;;;;4.28;1.08;;;25.40;99.90;;;;;;5091157;28;20104;-91
2022/08/22 11:43:08;;;;;;;7.43;1.48;;;25.30;99.90;;;;;;5089524;28;20456;-90
2022/08/22 11:45:49;;;;;;;5.47;1.30;;;25.30;99.90;;;;;;5090202;28;20063;-92
2022/08/22 11:48:42;;;;;;;5.07;1.60;;;25.20;99.90;;;;;;5089826;28;20130;-91
2022/08/22 11:51:17;;;;;;;4.45;1.38;;;25.20;99.90;;;;;;5088929;28;20066;-90
2022/08/22 11:53:52;;;;;;;3.15;1.25;;;25.40;99.90;;;;;;5090996;28;20138;-90
2022/08/22 11:56:37;;;;;;;9.20;1.67;;;25.80;99.90;;;;;;5090120;28;20054;-91
2022/08/22 11:59:17;;;;;;;7.32;1.50;;;26.10;99.90;;;;;;5089886;28;20574;-90
2022/08/22 12:01:49;;;;;;;3.00;1.17;;;26.30;99.90;;;;;;5090268;28;20578;-90
2022/08/22 12:04:19;;;;;;;5.63;1.55;;;26.30;99.50;;;;;;5089343;28;20051;-91
2022/08/22 12:07:06;;;;;;;6.35;1.83;;;26.10;99.90;;;;;;5090243;28;20577;-90
2022/08/22 12:09:54;;;;;;;3.33;1.00;;;26.10;99.40;;;;;;5106936;28;20608;-92
2022/08/22 12:12:22;;;;;;;7.13;1.40;;;26.20;99.50;;;;;;5089038;28;20046;-91
2022/08/22 12:15:18;;;;;;;3.47;1.75;;;26.30;99.60;;;;;;5090131;28;20118;-90
2022/08/22 12:18:17;;;;;;;6.55;1.55;;;26.10;98.50;;;;;;5078049;28;20052;-91
2022/08/22 12:20:46;;;;;;;4.80;1.80;;;26.00;99.50;;;;;;5105814;28;20145;-89
2022/08/22 12:23:23;;;;;;;8.00;1.40;;;26.10;99.80;;;;;;5089997;28;20048;-90
2022/08/22 12:26:26;;;;;;;9.18;1.65;;;26.20;99.90;;;;;;5105610;28;20058;-90
2022/08/22 12:29:04;;;;;;;6.53;1.63;;;26.30;98.90;;;;;;5106206;28;20083;-92
2022/08/22 12:31:54;;;;;;;6.80;1.50;;;26.30;98.70;;;;;;5089173;28;20043;-91
2022/08/22 12:34:27;;;;;;;5.50;1.27;;;26.20;98.60;;;;;;5088031;28;20475;-90
2022/08/22 12:37:01;;;;;;;6.53;1.98;;;26.00;98.90;;;;;;5106559;28;20048;-90
2022/08/22 12:39:29;;;;;;;7.90;1.52;;;25.80;98.90;;;;;;5105715;28;20077;-90
2022/08/22 12:42:16;;;;;;;5.57;1.60;;;25.90;99.70;;;;;;5105794;28;20047;-90
2022/08/22 12:45:06;;;;;;;4.57;1.17;;;26.10;99.20;;;;;;5089801;28;20047;-91
2022/08/22 12:48:17;;;;;;;6.47;1.52;;;26.30;98.30;;;;;;5105710;28;20123;-89
2022/08/22 12:50:53;;;;;;;6.38;1.05;;;26.30;98.00;;;;;;5050230;28;20063;-89
2022/08/22 12:53:56;;;;;;;6.05;1.60;;;26.10;98.50;;;;;;5106105;28;20054;-90
2022/08/22 12:56:39;;;;;;;3.83;1.05;;;26.20;97.40;;;;;;5106003;28;20055;-90
2022/08/22 12:59:26;;;;;;;4.72;1.30;;;26.40;98.40;;;;;;5105768;28;20051;-91
2022/08/22 13:01:55;;;;;;;5.00;1.83;;;27.10;98.30;;;;;;5107040;28;20044;-92
2022/08/22 13:04:25;;;;;;;5.35;1.35;;;26.90;97.10;;;;;;5106772;28;20086;-90
2022/08/22 13:07:16;;;;;;;4.28;1.15;;;27.10;96.20;;;;;;5091365;28;20067;-90
2022/08/22 13:09:49;;;;;;;6.13;1.27;;;27.30;95.40;;;;;;5090889;28;20071;-91
2022/08/22 13:12:22;;;;;;;5.53;1.20;;;27.50;93.30;;;;;;5108805;28;20058;-90
2022/08/22 13:14:54;;;;;;;5.88;1.17;;;27.70;94.40;;;;;;5113669;28;20368;-91
2022/08/22 13:17:21;;;;;;;6.55;1.25;;;27.70;92.90;;;;;;5099523;28;20489;-90
2022/08/22 13:19:52;;;;;;;6.15;1.40;;;27.80;93.20;;;;;;5105872;28;20036;-91
2022/08/22 13:22:24;;;;;;;11.25;1.77;;;27.90;93.10;;;;;;5123319;28;20078;-88
2022/08/22 13:24:59;;;;;;;5.88;1.10;;;28.00;91.10;;;;;;5121702;28;20032;-91
2022/08/22 13:27:41;;;;;;;5.65;1.23;;;27.90;91.30;;;;;;5105635;28;20162;-91
2022/08/22 13:30:15;;;;;;;3.15;1.13;;;27.90;91.30;;;;;;5097907;28;20502;-91
2022/08/22 13:32:46;;;;;;;6.50;1.60;;;27.80;90.50;;;;;;5122415;28;20075;-91
2022/08/22 13:35:47;;;;;;;7.28;1.23;;;27.60;90.20;;;;;;5120340;28;20031;-90
2022/08/22 13:38:25;;;;;;;5.40;1.40;;;27.40;89.10;;;;;;5060331;28;20073;-90
2022/08/22 13:40:53;;;;;;;5.13;1.20;;;27.10;91.10;;;;;;5083830;28;20033;-90
2022/08/22 13:44:00;;;;;;;6.13;1.20;;;26.90;92.00;;;;;;5100253;28;20133;-90
2022/08/22 13:46:29;;;;;;;5.32;1.50;;;26.70;92.00;;;;;;5103928;28;20055;-91
2022/08/22 13:48:58;;;;;;;5.55;1.17;;;26.50;92.40;;;;;;5084527;28;20042;-89
2022/08/22 13:52:00;;;;;;;4.85;1.20;;;26.50;92.70;;;;;;5092927;28;20495;-90
2022/08/22 13:54:49;;;;;;;4.07;1.38;;;26.50;91.40;;;;;;5090486;28;20052;-89
2022/08/22 13:57:37;;;;;;;6.38;1.08;;;26.30;92.10;;;;;;5097504;28;20130;-90
2022/08/22 14:00:17;;;;;;;5.53;1.95;;;26.20;92.90;;;;;;5090370;28;20078;-89
2022/08/22 14:03:00;;;;;;;5.72;1.38;;;26.10;93.80;;;;;;5097625;28;20044;-90
2022/08/22 14:05:37;;;;;;;6.50;1.40;;;26.20;94.40;;;;;;5098287;28;20080;-90
2022/08/22 14:08:16;;;;;;;8.85;1.38;;;26.40;94.40;;;;;;5092427;28;20036;-90
2022/08/22 14:11:01;;;;;;;4.22;1.33;;;26.40;93.50;;;;;;5073541;28;20048;-89